Scott, LA (70583)

4:22 PM CDT on July 30, 2016 (GMT -0500)
Shiloh | | Change Station

Elev 59 ft 30.26 °N, 92.06 °W | Updated 7 seconds ago

Mostly Cloudy
Mostly Cloudy
88.9 °F
Feels Like 100 °F
N
11.0
Wind Variable Wind from SSE

Today
High -- | Low -- °F
--% Chance of Precip.
Yesterday
High -- | Low -- °F
Precip. -- in
Pressure 30.01 in
Visibility 10.0 miles
Clouds Mostly Cloudy 4000 ft
Heat Index 100 °F
Dew Point 76 °F
Humidity 65%
Rainfall 0.00 in
Snow Depth Not available.
6:26 AM 8:03 PM
Waning Crescent, 11% visible
METAR KLFT 302053Z 18012G17KT 10SM BKN040 31/24 A3000 RMK AO2 LTG DSNT SE AND S SLP160 T03110244 55004
Pressure 30.01 in
Visibility 10.0 miles
Clouds Mostly Cloudy 4000 ft
Heat Index 100 °F
Dew Point 76 °F
Humidity 65%
Rainfall 0.00 in
Snow Depth Not available.
6:26 AM 8:03 PM
Waning Crescent, 11% visible
METAR KLFT 302053Z 18012G17KT 10SM BKN040 31/24 A3000 RMK AO2 LTG DSNT SE AND S SLP160 T03110244 55004

10-Day Weather Forecast

Almanac

Astronomy

Jul. 30, 2016 Rise Set
Actual Time
Civil Twilight
Nautical Twilight
Astronomical Twilight
Moon
Length of Visible Light
Length of Day
Tomorrow will be .
, % of the Moon is Illuminated

Today's Extremes

State Highs State Lows

Community

WunderPhotos

Upload Photos

1,928,648 photos uploaded!

WunderBlog® & News

Nearby

Air Quality

  Air Quality AQ Index Pollutant
Not available.

Snow Depth

Station Depth Elevation

Earthquake Activity

City Distance Mag. Time & Date
Minimum magnitude displayed is 2.5.

Coastal Water Temperatures

Place Temperature

Stations

Nearby Weather Stations

Station Location Temp. Windchill Dew Point Humidity Wind Precip. Elev Updated Type
                   

Watches & Warnings

There are currently no watches in effect.